sensor_id;sensor_type;location;lat;lon;timestamp;pressure;altitude;pressure_sealevel;temperature;humidity
38225;BME280;24025;48.138;11.428;2023-04-02T00:06:35;94738.94;;;7.31;72.43
38225;BME280;24025;48.138;11.428;2023-04-02T00:11:51;94738.09;;;7.24;73.26
38225;BME280;24025;48.138;11.428;2023-04-02T00:16:58;94745.63;;;7.22;73.01
38225;BME280;24025;48.138;11.428;2023-04-02T00:19:40;94747.00;;;7.08;73.68
38225;BME280;24025;48.138;11.428;2023-04-02T00:22:16;94743.50;;;7.04;73.63
38225;BME280;24025;48.138;11.428;2023-04-02T00:24:52;94746.94;;;7.05;73.84
38225;BME280;24025;48.138;11.428;2023-04-02T00:27:24;94746.88;;;7.01;73.69
38225;BME280;24025;48.138;11.428;2023-04-02T00:29:56;94746.16;;;7.04;73.40
38225;BME280;24025;48.138;11.428;2023-04-02T00:32:30;94747.66;;;7.02;73.77
38225;BME280;24025;48.138;11.428;2023-04-02T00:35:02;94749.94;;;7.03;73.36
38225;BME280;24025;48.138;11.428;2023-04-02T00:37:37;94755.25;;;7.03;73.70
38225;BME280;24025;48.138;11.428;2023-04-02T00:42:45;94749.13;;;6.99;73.71
38225;BME280;24025;48.138;11.428;2023-04-02T00:45:25;94766.22;;;7.02;73.63
38225;BME280;24025;48.138;11.428;2023-04-02T00:47:59;94755.25;;;7.03;73.63
38225;BME280;24025;48.138;11.428;2023-04-02T00:50:43;94752.19;;;7.01;73.95
38225;BME280;24025;48.138;11.428;2023-04-02T00:53:21;94760.59;;;7.07;73.36
38225;BME280;24025;48.138;11.428;2023-04-02T00:55:54;94756.88;;;7.12;73.06
38225;BME280;24025;48.138;11.428;2023-04-02T00:58:27;94750.00;;;7.07;73.06
38225;BME280;24025;48.138;11.428;2023-04-02T01:01:02;94756.47;;;7.09;73.29
38225;BME280;24025;48.138;11.428;2023-04-02T01:03:36;94762.13;;;7.08;73.28
38225;BME280;24025;48.138;11.428;2023-04-02T01:06:13;94764.03;;;7.07;73.14
38225;BME280;24025;48.138;11.428;2023-04-02T01:14:32;94773.75;;;7.00;73.88
38225;BME280;24025;48.138;11.428;2023-04-02T01:22:27;94772.13;;;6.92;74.10
38225;BME280;24025;48.138;11.428;2023-04-02T01:25:05;94778.19;;;6.92;73.81
38225;BME280;24025;48.138;11.428;2023-04-02T01:27:39;94777.06;;;6.93;74.24
38225;BME280;24025;48.138;11.428;2023-04-02T01:30:13;94769.47;;;6.92;73.87
38225;BME280;24025;48.138;11.428;2023-04-02T01:32:46;94775.06;;;6.87;74.27
38225;BME280;24025;48.138;11.428;2023-04-02T01:35:17;94768.63;;;6.88;74.34
38225;BME280;24025;48.138;11.428;2023-04-02T01:37:50;94772.13;;;6.92;74.29
38225;BME280;24025;48.138;11.428;2023-04-02T01:40:46;94759.88;;;6.84;74.64
38225;BME280;24025;48.138;11.428;2023-04-02T01:43:34;94770.97;;;6.89;74.16
38225;BME280;24025;48.138;11.428;2023-04-02T01:46:24;94776.31;;;6.93;74.51
38225;BME280;24025;48.138;11.428;2023-04-02T01:48:56;94771.72;;;6.90;74.76
38225;BME280;24025;48.138;11.428;2023-04-02T01:51:33;94779.72;;;6.93;74.41
38225;BME280;24025;48.138;11.428;2023-04-02T01:54:05;94784.66;;;6.95;74.54
38225;BME280;24025;48.138;11.428;2023-04-02T01:56:38;94787.00;;;7.00;74.48
38225;BME280;24025;48.138;11.428;2023-04-02T01:59:10;94782.38;;;6.93;74.59
38225;BME280;24025;48.138;11.428;2023-04-02T02:01:56;94786.56;;;6.98;74.26
38225;BME280;24025;48.138;11.428;2023-04-02T02:04:29;94793.06;;;7.00;74.50
38225;BME280;24025;48.138;11.428;2023-04-02T02:07:01;94793.72;;;6.94;74.18
38225;BME280;24025;48.138;11.428;2023-04-02T02:09:34;94791.69;;;6.84;74.69
38225;BME280;24025;48.138;11.428;2023-04-02T02:12:06;94803.53;;;6.90;74.68
38225;BME280;24025;48.138;11.428;2023-04-02T02:14:38;94795.25;;;6.95;74.58
38225;BME280;24025;48.138;11.428;2023-04-02T02:17:09;94804.28;;;6.90;74.42
38225;BME280;24025;48.138;11.428;2023-04-02T02:22:28;94811.00;;;6.84;74.93
38225;BME280;24025;48.138;11.428;2023-04-02T02:25:03;94809.28;;;6.95;74.34
38225;BME280;24025;48.138;11.428;2023-04-02T02:27:43;94809.16;;;6.88;74.37
38225;BME280;24025;48.138;11.428;2023-04-02T02:30:19;94811.88;;;6.92;74.47
38225;BME280;24025;48.138;11.428;2023-04-02T02:33:02;94814.94;;;6.94;74.37
38225;BME280;24025;48.138;11.428;2023-04-02T02:35:42;94826.25;;;6.91;74.43
38225;BME280;24025;48.138;11.428;2023-04-02T02:38:24;94818.69;;;6.93;74.29
38225;BME280;24025;48.138;11.428;2023-04-02T02:41:01;94827.88;;;6.99;73.92
38225;BME280;24025;48.138;11.428;2023-04-02T02:43:33;94832.19;;;6.84;74.66
38225;BME280;24025;48.138;11.428;2023-04-02T02:46:08;94828.97;;;6.98;73.91
38225;BME280;24025;48.138;11.428;2023-04-02T02:48:44;94830.81;;;6.94;73.85
38225;BME280;24025;48.138;11.428;2023-04-02T02:51:19;94830.44;;;6.92;74.01
38225;BME280;24025;48.138;11.428;2023-04-02T02:53:52;94838.41;;;6.95;73.76
38225;BME280;24025;48.138;11.428;2023-04-02T02:56:25;94838.78;;;6.94;74.21
38225;BME280;24025;48.138;11.428;2023-04-02T02:58:58;94845.97;;;6.93;74.18
38225;BME280;24025;48.138;11.428;2023-04-02T03:01:30;94849.50;;;6.78;74.57
38225;BME280;24025;48.138;11.428;2023-04-02T03:04:02;94843.69;;;6.92;74.21
38225;BME280;24025;48.138;11.428;2023-04-02T03:06:34;94847.34;;;6.84;74.33
38225;BME280;24025;48.138;11.428;2023-04-02T03:14:45;94854.28;;;6.92;74.66
38225;BME280;24025;48.138;11.428;2023-04-02T03:19:54;94858.81;;;6.91;74.31
38225;BME280;24025;48.138;11.428;2023-04-02T03:22:30;94862.63;;;6.94;74.02
38225;BME280;24025;48.138;11.428;2023-04-02T03:27:45;94855.91;;;7.00;73.85
38225;BME280;24025;48.138;11.428;2023-04-02T03:32:50;94862.28;;;6.95;74.23
38225;BME280;24025;48.138;11.428;2023-04-02T03:38:27;94866.41;;;6.93;73.90
38225;BME280;24025;48.138;11.428;2023-04-02T03:40:58;94870.63;;;6.97;74.17
38225;BME280;24025;48.138;11.428;2023-04-02T03:43:33;94878.06;;;6.88;74.32
38225;BME280;24025;48.138;11.428;2023-04-02T03:48:42;94891.78;;;6.94;74.18
38225;BME280;24025;48.138;11.428;2023-04-02T03:51:21;94880.00;;;6.91;73.88
38225;BME280;24025;48.138;11.428;2023-04-02T03:53:54;94887.97;;;6.91;74.00
38225;BME280;24025;48.138;11.428;2023-04-02T03:56:27;94890.66;;;6.95;74.04
38225;BME280;24025;48.138;11.428;2023-04-02T03:59:43;94887.25;;;6.94;73.89
38225;BME280;24025;48.138;11.428;2023-04-02T04:04:26;94899.72;;;6.94;73.83
38225;BME280;24025;48.138;11.428;2023-04-02T04:06:59;94899.03;;;6.97;74.12
38225;BME280;24025;48.138;11.428;2023-04-02T04:09:32;94908.16;;;6.99;73.68
38225;BME280;24025;48.138;11.428;2023-04-02T04:12:13;94904.28;;;6.93;74.03
38225;BME280;24025;48.138;11.428;2023-04-02T04:14:51;94905.00;;;6.90;74.45
38225;BME280;24025;48.138;11.428;2023-04-02T04:17:29;94909.94;;;6.92;74.20
38225;BME280;24025;48.138;11.428;2023-04-02T04:20:15;94915.38;;;6.79;74.18
38225;BME280;24025;48.138;11.428;2023-04-02T04:22:48;94909.03;;;6.84;74.10
38225;BME280;24025;48.138;11.428;2023-04-02T04:25:23;94916.63;;;6.86;73.91
38225;BME280;24025;48.138;11.428;2023-04-02T04:33:19;94923.56;;;6.71;74.31
38225;BME280;24025;48.138;11.428;2023-04-02T04:35:57;94925.81;;;6.69;74.52
38225;BME280;24025;48.138;11.428;2023-04-02T04:41:13;94938.38;;;6.72;74.84
38225;BME280;24025;48.138;11.428;2023-04-02T04:52:13;94944.16;;;6.58;74.87
38225;BME280;24025;48.138;11.428;2023-04-02T04:54:47;94945.75;;;6.63;74.91
38225;BME280;24025;48.138;11.428;2023-04-02T04:57:26;94945.41;;;6.64;74.58
38225;BME280;24025;48.138;11.428;2023-04-02T05:00:11;94946.59;;;6.67;74.60
38225;BME280;24025;48.138;11.428;2023-04-02T05:02:47;94948.06;;;6.64;75.06
38225;BME280;24025;48.138;11.428;2023-04-02T05:05:25;94946.03;;;6.58;75.23
38225;BME280;24025;48.138;11.428;2023-04-02T05:08:03;94953.28;;;6.41;75.49
38225;BME280;24025;48.138;11.428;2023-04-02T05:10:39;94955.59;;;6.43;75.70
38225;BME280;24025;48.138;11.428;2023-04-02T05:13:14;94961.03;;;6.50;75.57
38225;BME280;24025;48.138;11.428;2023-04-02T05:16:04;94967.72;;;6.44;75.55
38225;BME280;24025;48.138;11.428;2023-04-02T05:18:44;94967.38;;;6.45;75.90
38225;BME280;24025;48.138;11.428;2023-04-02T05:21:22;94972.31;;;6.47;75.99
38225;BME280;24025;48.138;11.428;2023-04-02T05:24:41;94981.38;;;6.46;75.97
38225;BME280;24025;48.138;11.428;2023-04-02T05:26:51;94987.25;;;6.55;75.66
38225;BME280;24025;48.138;11.428;2023-04-02T05:29:25;94988.34;;;6.54;75.70
38225;BME280;24025;48.138;11.428;2023-04-02T05:34:31;94990.16;;;6.50;75.49
38225;BME280;24025;48.138;11.428;2023-04-02T05:37:04;94993.22;;;6.52;75.85
38225;BME280;24025;48.138;11.428;2023-04-02T05:39:37;94996.56;;;6.49;75.70
38225;BME280;24025;48.138;11.428;2023-04-02T05:42:15;95002.44;;;6.58;75.42
38225;BME280;24025;48.138;11.428;2023-04-02T05:47:24;95003.97;;;6.59;75.50
38225;BME280;24025;48.138;11.428;2023-04-02T05:52:41;95007.47;;;6.63;75.22
38225;BME280;24025;48.138;11.428;2023-04-02T05:57:56;95018.53;;;6.69;75.16
38225;BME280;24025;48.138;11.428;2023-04-02T06:03:50;95024.03;;;6.60;75.21
38225;BME280;24025;48.138;11.428;2023-04-02T06:06:39;95024.47;;;6.81;74.71
38225;BME280;24025;48.138;11.428;2023-04-02T06:09:14;95026.41;;;6.85;74.15
38225;BME280;24025;48.138;11.428;2023-04-02T06:11:50;95024.59;;;6.69;74.85
38225;BME280;24025;48.138;11.428;2023-04-02T06:14:23;95027.72;;;6.75;74.78
38225;BME280;24025;48.138;11.428;2023-04-02T06:16:54;95031.69;;;6.85;74.54
38225;BME280;24025;48.138;11.428;2023-04-02T06:19:28;95032.72;;;6.80;74.24
38225;BME280;24025;48.138;11.428;2023-04-02T06:22:08;95039.69;;;6.88;74.27
38225;BME280;24025;48.138;11.428;2023-04-02T06:24:42;95038.63;;;6.89;74.37
38225;BME280;24025;48.138;11.428;2023-04-02T06:27:16;95039.84;;;6.95;73.96
38225;BME280;24025;48.138;11.428;2023-04-02T06:29:50;95037.34;;;6.83;74.17
38225;BME280;24025;48.138;11.428;2023-04-02T06:32:23;95039.03;;;6.91;74.37
38225;BME280;24025;48.138;11.428;2023-04-02T06:34:57;95043.25;;;6.96;74.04
38225;BME280;24025;48.138;11.428;2023-04-02T06:37:29;95052.53;;;6.86;74.65
38225;BME280;24025;48.138;11.428;2023-04-02T06:40:03;95050.44;;;6.95;74.42
38225;BME280;24025;48.138;11.428;2023-04-02T06:42:36;95057.63;;;6.95;74.17
38225;BME280;24025;48.138;11.428;2023-04-02T06:45:13;95047.88;;;6.99;74.41
38225;BME280;24025;48.138;11.428;2023-04-02T06:47:47;95051.75;;;7.05;74.22
38225;BME280;24025;48.138;11.428;2023-04-02T06:52:57;95067.75;;;7.08;73.79
38225;BME280;24025;48.138;11.428;2023-04-02T06:58:05;95070.44;;;7.12;73.38
38225;BME280;24025;48.138;11.428;2023-04-02T07:00:40;95073.41;;;7.07;74.20
38225;BME280;24025;48.138;11.428;2023-04-02T07:03:15;95087.00;;;7.25;73.58
38225;BME280;24025;48.138;11.428;2023-04-02T07:05:47;95088.63;;;7.33;73.67
38225;BME280;24025;48.138;11.428;2023-04-02T07:08:19;95088.94;;;7.28;73.57
38225;BME280;24025;48.138;11.428;2023-04-02T07:10:51;95094.16;;;7.24;73.87
38225;BME280;24025;48.138;11.428;2023-04-02T07:13:22;95095.06;;;7.32;73.19
38225;BME280;24025;48.138;11.428;2023-04-02T07:15:54;95097.47;;;7.41;73.58
38225;BME280;24025;48.138;11.428;2023-04-02T07:18:32;95092.03;;;7.53;73.12
38225;BME280;24025;48.138;11.428;2023-04-02T07:21:04;95101.13;;;7.52;72.82
38225;BME280;24025;48.138;11.428;2023-04-02T07:23:36;95096.63;;;7.56;72.85
38225;BME280;24025;48.138;11.428;2023-04-02T07:26:10;95094.22;;;7.70;72.47
38225;BME280;24025;48.138;11.428;2023-04-02T07:28:43;95104.75;;;7.66;72.71
38225;BME280;24025;48.138;11.428;2023-04-02T07:33:47;95106.25;;;7.64;72.43
38225;BME280;24025;48.138;11.428;2023-04-02T07:36:19;95117.09;;;7.78;72.50
38225;BME280;24025;48.138;11.428;2023-04-02T07:38:51;95109.59;;;7.84;72.79
38225;BME280;24025;48.138;11.428;2023-04-02T07:41:23;95111.72;;;7.75;72.53
38225;BME280;24025;48.138;11.428;2023-04-02T07:43:54;95114.75;;;7.96;72.67
38225;BME280;24025;48.138;11.428;2023-04-02T07:46:26;95122.22;;;7.90;72.52
38225;BME280;24025;48.138;11.428;2023-04-02T07:48:58;95129.19;;;7.99;71.90
38225;BME280;24025;48.138;11.428;2023-04-02T07:51:29;95129.31;;;8.06;72.23
38225;BME280;24025;48.138;11.428;2023-04-02T07:54:00;95129.31;;;8.06;71.54
38225;BME280;24025;48.138;11.428;2023-04-02T07:56:33;95134.66;;;8.09;71.14
38225;BME280;24025;48.138;11.428;2023-04-02T07:59:04;95132.50;;;8.15;70.72
38225;BME280;24025;48.138;11.428;2023-04-02T08:01:36;95143.75;;;8.31;71.13
38225;BME280;24025;48.138;11.428;2023-04-02T08:04:15;95145.44;;;8.39;70.38
38225;BME280;24025;48.138;11.428;2023-04-02T08:06:47;95149.91;;;8.35;70.52
38225;BME280;24025;48.138;11.428;2023-04-02T08:09:19;95145.97;;;8.29;70.42
38225;BME280;24025;48.138;11.428;2023-04-02T08:11:51;95151.84;;;8.15;70.97
38225;BME280;24025;48.138;11.428;2023-04-02T08:14:22;95160.69;;;8.23;70.77
38225;BME280;24025;48.138;11.428;2023-04-02T08:16:54;95152.81;;;8.30;70.52
38225;BME280;24025;48.138;11.428;2023-04-02T08:19:26;95159.75;;;8.35;69.91
38225;BME280;24025;48.138;11.428;2023-04-02T08:21:58;95158.72;;;8.39;70.27
38225;BME280;24025;48.138;11.428;2023-04-02T08:24:29;95156.97;;;8.50;70.01
38225;BME280;24025;48.138;11.428;2023-04-02T08:27:01;95164.78;;;8.66;69.61
38225;BME280;24025;48.138;11.428;2023-04-02T08:29:33;95165.59;;;8.44;69.63
38225;BME280;24025;48.138;11.428;2023-04-02T08:32:04;95168.81;;;8.57;70.03
38225;BME280;24025;48.138;11.428;2023-04-02T08:34:36;95166.00;;;8.46;70.40
38225;BME280;24025;48.138;11.428;2023-04-02T08:37:08;95172.41;;;8.68;69.60
38225;BME280;24025;48.138;11.428;2023-04-02T08:39:40;95169.03;;;8.71;69.13
38225;BME280;24025;48.138;11.428;2023-04-02T08:47:54;95165.88;;;8.92;68.38
38225;BME280;24025;48.138;11.428;2023-04-02T08:50:34;95172.13;;;9.03;68.78
38225;BME280;24025;48.138;11.428;2023-04-02T08:53:13;95179.00;;;9.07;68.09
38225;BME280;24025;48.138;11.428;2023-04-02T08:55:53;95188.69;;;9.19;67.84
38225;BME280;24025;48.138;11.428;2023-04-02T09:03:48;95191.25;;;9.12;68.93
38225;BME280;24025;48.138;11.428;2023-04-02T09:06:21;95190.50;;;9.15;68.31
38225;BME280;24025;48.138;11.428;2023-04-02T09:08:53;95190.00;;;9.36;67.89
38225;BME280;24025;48.138;11.428;2023-04-02T09:11:33;95195.13;;;9.52;67.13
38225;BME280;24025;48.138;11.428;2023-04-02T09:14:10;95190.34;;;9.31;67.12
38225;BME280;24025;48.138;11.428;2023-04-02T09:16:52;95203.13;;;9.22;67.02
38225;BME280;24025;48.138;11.428;2023-04-02T09:19:30;95199.84;;;9.32;68.00
38225;BME280;24025;48.138;11.428;2023-04-02T09:22:04;95211.03;;;9.15;68.25
38225;BME280;24025;48.138;11.428;2023-04-02T09:24:37;95207.50;;;9.07;68.10
38225;BME280;24025;48.138;11.428;2023-04-02T09:27:16;95210.72;;;9.20;67.76
38225;BME280;24025;48.138;11.428;2023-04-02T09:29:50;95207.19;;;9.42;67.02
38225;BME280;24025;48.138;11.428;2023-04-02T09:35:12;95207.31;;;9.53;65.44
38225;BME280;24025;48.138;11.428;2023-04-02T09:43:33;95219.94;;;9.59;65.87
38225;BME280;24025;48.138;11.428;2023-04-02T09:48:44;95218.47;;;9.32;66.27
38225;BME280;24025;48.138;11.428;2023-04-02T09:51:17;95230.34;;;9.38;65.50
38225;BME280;24025;48.138;11.428;2023-04-02T09:56:36;95217.09;;;9.45;66.25
38225;BME280;24025;48.138;11.428;2023-04-02T09:59:17;95220.06;;;9.70;65.25
38225;BME280;24025;48.138;11.428;2023-04-02T10:04:42;95231.69;;;9.55;65.65
38225;BME280;24025;48.138;11.428;2023-04-02T10:18:11;95231.50;;;10.08;63.42
38225;BME280;24025;48.138;11.428;2023-04-02T10:20:46;95230.19;;;10.28;62.40
38225;BME280;24025;48.138;11.428;2023-04-02T10:23:22;95237.84;;;10.33;62.40
38225;BME280;24025;48.138;11.428;2023-04-02T10:26:02;95230.28;;;10.39;61.89
38225;BME280;24025;48.138;11.428;2023-04-02T10:33:54;95228.84;;;10.96;60.26
38225;BME280;24025;48.138;11.428;2023-04-02T10:39:27;95229.53;;;10.90;59.32
38225;BME280;24025;48.138;11.428;2023-04-02T10:42:23;95234.50;;;10.91;59.13
38225;BME280;24025;48.138;11.428;2023-04-02T10:50:48;95232.81;;;11.27;57.67
38225;BME280;24025;48.138;11.428;2023-04-02T10:53:33;95237.44;;;11.34;57.31
38225;BME280;24025;48.138;11.428;2023-04-02T10:56:08;95237.00;;;11.28;57.66
38225;BME280;24025;48.138;11.428;2023-04-02T11:01:44;95255.22;;;11.12;59.16
38225;BME280;24025;48.138;11.428;2023-04-02T11:06:50;95252.09;;;10.99;58.96
38225;BME280;24025;48.138;11.428;2023-04-02T11:09:37;95253.03;;;11.28;59.06
38225;BME280;24025;48.138;11.428;2023-04-02T11:12:35;95260.97;;;11.14;59.64
38225;BME280;24025;48.138;11.428;2023-04-02T11:15:15;95265.44;;;11.03;60.55
38225;BME280;24025;48.138;11.428;2023-04-02T11:17:48;95262.78;;;11.03;60.95
38225;BME280;24025;48.138;11.428;2023-04-02T11:23:12;95267.72;;;11.01;62.05
38225;BME280;24025;48.138;11.428;2023-04-02T11:25:45;95275.09;;;11.18;59.74
38225;BME280;24025;48.138;11.428;2023-04-02T11:30:50;95269.09;;;11.35;58.68
38225;BME280;24025;48.138;11.428;2023-04-02T11:38:59;95270.16;;;11.93;56.91
38225;BME280;24025;48.138;11.428;2023-04-02T11:44:30;95280.50;;;12.05;59.14
38225;BME280;24025;48.138;11.428;2023-04-02T11:47:23;95269.75;;;11.84;61.27
38225;BME280;24025;48.138;11.428;2023-04-02T11:52:28;95271.25;;;11.81;61.69
38225;BME280;24025;48.138;11.428;2023-04-02T11:55:03;95279.31;;;11.23;61.65
38225;BME280;24025;48.138;11.428;2023-04-02T11:57:45;95278.56;;;11.26;62.58
38225;BME280;24025;48.138;11.428;2023-04-02T12:05:41;95284.66;;;11.26;62.49
38225;BME280;24025;48.138;11.428;2023-04-02T12:10:58;95280.69;;;11.64;59.71
38225;BME280;24025;48.138;11.428;2023-04-02T12:16:11;95279.06;;;12.43;57.64
38225;BME280;24025;48.138;11.428;2023-04-02T12:18:43;95290.16;;;12.67;57.50
38225;BME280;24025;48.138;11.428;2023-04-02T12:21:17;95286.31;;;12.54;57.46
38225;BME280;24025;48.138;11.428;2023-04-02T12:23:50;95292.81;;;12.49;57.28
38225;BME280;24025;48.138;11.428;2023-04-02T12:26:25;95291.19;;;12.09;58.21
38225;BME280;24025;48.138;11.428;2023-04-02T12:31:46;95304.72;;;11.64;57.49
38225;BME280;24025;48.138;11.428;2023-04-02T12:34:19;95292.72;;;11.33;58.66
38225;BME280;24025;48.138;11.428;2023-04-02T12:36:51;95302.84;;;11.72;58.53
38225;BME280;24025;48.138;11.428;2023-04-02T12:39:24;95302.22;;;11.93;57.99
38225;BME280;24025;48.138;11.428;2023-04-02T12:41:58;95305.34;;;12.16;57.16
38225;BME280;24025;48.138;11.428;2023-04-02T12:44:30;95300.50;;;12.83;55.37
38225;BME280;24025;48.138;11.428;2023-04-02T12:47:02;95296.31;;;13.28;53.33
38225;BME280;24025;48.138;11.428;2023-04-02T12:49:38;95309.69;;;13.21;53.18
38225;BME280;24025;48.138;11.428;2023-04-02T12:52:20;95308.88;;;13.59;52.57
38225;BME280;24025;48.138;11.428;2023-04-02T13:00:00;95308.53;;;13.36;57.12
38225;BME280;24025;48.138;11.428;2023-04-02T13:02:43;95314.28;;;12.92;58.61
38225;BME280;24025;48.138;11.428;2023-04-02T13:05:36;95316.81;;;12.21;59.59
38225;BME280;24025;48.138;11.428;2023-04-02T13:11:07;95314.16;;;11.44;63.52
38225;BME280;24025;48.138;11.428;2023-04-02T13:13:39;95323.06;;;10.67;67.33
38225;BME280;24025;48.138;11.428;2023-04-02T13:18:46;95313.56;;;11.14;67.18
38225;BME280;24025;48.138;11.428;2023-04-02T13:23:49;95327.63;;;11.07;71.00
38225;BME280;24025;48.138;11.428;2023-04-02T13:26:22;95323.25;;;11.36;70.75
38225;BME280;24025;48.138;11.428;2023-04-02T13:28:55;95322.50;;;11.39;71.29
38225;BME280;24025;48.138;11.428;2023-04-02T13:31:28;95324.47;;;11.49;73.10
38225;BME280;24025;48.138;11.428;2023-04-02T13:34:00;95327.47;;;11.41;73.09
38225;BME280;24025;48.138;11.428;2023-04-02T13:36:32;95324.97;;;11.69;70.95
38225;BME280;24025;48.138;11.428;2023-04-02T13:39:04;95326.63;;;11.88;70.81
38225;BME280;24025;48.138;11.428;2023-04-02T13:41:38;95330.81;;;11.93;68.59
38225;BME280;24025;48.138;11.428;2023-04-02T13:44:21;95334.75;;;12.16;67.75
38225;BME280;24025;48.138;11.428;2023-04-02T13:46:54;95332.03;;;12.09;68.86
38225;BME280;24025;48.138;11.428;2023-04-02T13:49:26;95335.91;;;12.23;68.88
38225;BME280;24025;48.138;11.428;2023-04-02T13:51:59;95334.44;;;12.39;67.47
38225;BME280;24025;48.138;11.428;2023-04-02T13:54:46;95339.38;;;12.34;68.30
38225;BME280;24025;48.138;11.428;2023-04-02T13:57:19;95341.22;;;12.15;68.08
38225;BME280;24025;48.138;11.428;2023-04-02T13:59:51;95349.19;;;11.94;68.75
38225;BME280;24025;48.138;11.428;2023-04-02T14:02:23;95343.44;;;11.33;70.93
38225;BME280;24025;48.138;11.428;2023-04-02T14:05:07;95354.19;;;10.93;73.01
38225;BME280;24025;48.138;11.428;2023-04-02T14:07:56;95357.97;;;10.92;74.27
38225;BME280;24025;48.138;11.428;2023-04-02T14:26:31;95381.63;;;9.92;81.38
38225;BME280;24025;48.138;11.428;2023-04-02T14:32:06;95379.75;;;9.67;82.71
38225;BME280;24025;48.138;11.428;2023-04-02T14:40:07;95382.53;;;9.74;80.01
38225;BME280;24025;48.138;11.428;2023-04-02T14:43:01;95390.63;;;9.54;80.33
38225;BME280;24025;48.138;11.428;2023-04-02T14:48:29;95399.06;;;9.60;79.13
38225;BME280;24025;48.138;11.428;2023-04-02T14:51:04;95400.28;;;9.40;78.45
38225;BME280;24025;48.138;11.428;2023-04-02T14:53:42;95398.06;;;9.45;77.91
38225;BME280;24025;48.138;11.428;2023-04-02T14:56:18;95406.16;;;9.52;77.81
38225;BME280;24025;48.138;11.428;2023-04-02T14:58:54;95411.47;;;9.26;78.17
38225;BME280;24025;48.138;11.428;2023-04-02T15:01:30;95414.06;;;9.22;79.79
38225;BME280;24025;48.138;11.428;2023-04-02T15:04:05;95424.19;;;9.13;79.99
38225;BME280;24025;48.138;11.428;2023-04-02T15:06:42;95422.34;;;8.94;82.03
38225;BME280;24025;48.138;11.428;2023-04-02T15:09:19;95423.13;;;8.95;82.68
38225;BME280;24025;48.138;11.428;2023-04-02T15:11:59;95426.19;;;8.97;81.30
38225;BME280;24025;48.138;11.428;2023-04-02T15:14:38;95433.22;;;9.08;82.24
38225;BME280;24025;48.138;11.428;2023-04-02T15:17:11;95427.75;;;9.21;82.95
38225;BME280;24025;48.138;11.428;2023-04-02T15:19:45;95440.81;;;9.29;82.87
38225;BME280;24025;48.138;11.428;2023-04-02T15:22:28;95438.34;;;9.44;82.38
38225;BME280;24025;48.138;11.428;2023-04-02T15:30:14;95438.06;;;9.26;81.37
38225;BME280;24025;48.138;11.428;2023-04-02T15:32:50;95444.91;;;9.27;81.78
38225;BME280;24025;48.138;11.428;2023-04-02T15:40:59;95441.44;;;9.46;82.59
38225;BME280;24025;48.138;11.428;2023-04-02T15:43:38;95449.84;;;9.48;81.92
38225;BME280;24025;48.138;11.428;2023-04-02T15:46:20;95454.22;;;9.36;82.20
38225;BME280;24025;48.138;11.428;2023-04-02T15:59:30;95476.66;;;8.93;83.42
38225;BME280;24025;48.138;11.428;2023-04-02T16:07:53;95475.41;;;8.68;86.79
38225;BME280;24025;48.138;11.428;2023-04-02T16:10:32;95488.16;;;8.78;86.43
38225;BME280;24025;48.138;11.428;2023-04-02T16:16:00;95489.47;;;8.88;86.00
38225;BME280;24025;48.138;11.428;2023-04-02T16:18:53;95499.59;;;8.82;86.25
38225;BME280;24025;48.138;11.428;2023-04-02T16:24:21;95503.66;;;8.57;86.49
38225;BME280;24025;48.138;11.428;2023-04-02T16:26:58;95517.69;;;8.38;87.64
38225;BME280;24025;48.138;11.428;2023-04-02T16:29:47;95522.34;;;8.41;87.29
38225;BME280;24025;48.138;11.428;2023-04-02T16:35:15;95524.22;;;8.24;89.25
38225;BME280;24025;48.138;11.428;2023-04-02T16:40:44;95535.47;;;8.18;87.73
38225;BME280;24025;48.138;11.428;2023-04-02T16:43:45;95543.19;;;8.23;88.23
38225;BME280;24025;48.138;11.428;2023-04-02T16:46:32;95541.44;;;8.31;87.21
38225;BME280;24025;48.138;11.428;2023-04-02T16:51:53;95550.59;;;8.33;86.48
38225;BME280;24025;48.138;11.428;2023-04-02T16:55:14;95554.13;;;8.37;86.74
38225;BME280;24025;48.138;11.428;2023-04-02T17:13:18;95587.41;;;8.15;85.68
38225;BME280;24025;48.138;11.428;2023-04-02T17:18:33;95589.34;;;8.03;86.22
38225;BME280;24025;48.138;11.428;2023-04-02T17:21:08;95599.66;;;8.04;85.52
38225;BME280;24025;48.138;11.428;2023-04-02T17:26:27;95603.84;;;7.89;85.21
38225;BME280;24025;48.138;11.428;2023-04-02T17:29:00;95618.16;;;7.69;84.54
38225;BME280;24025;48.138;11.428;2023-04-02T17:31:35;95615.72;;;7.64;85.08
38225;BME280;24025;48.138;11.428;2023-04-02T17:34:12;95623.06;;;7.55;84.28
38225;BME280;24025;48.138;11.428;2023-04-02T17:39:38;95627.19;;;7.52;83.97
38225;BME280;24025;48.138;11.428;2023-04-02T17:50:28;95647.19;;;7.50;84.42
38225;BME280;24025;48.138;11.428;2023-04-02T17:53:07;95657.81;;;7.50;84.33
38225;BME280;24025;48.138;11.428;2023-04-02T17:55:56;95655.50;;;7.48;83.54
38225;BME280;24025;48.138;11.428;2023-04-02T18:01:21;95674.63;;;7.42;83.62
38225;BME280;24025;48.138;11.428;2023-04-02T18:06:37;95676.00;;;7.35;81.17
38225;BME280;24025;48.138;11.428;2023-04-02T18:12:09;95691.91;;;7.35;81.62
38225;BME280;24025;48.138;11.428;2023-04-02T18:17:24;95706.84;;;7.28;83.02
38225;BME280;24025;48.138;11.428;2023-04-02T18:20:15;95705.97;;;7.24;79.88
38225;BME280;24025;48.138;11.428;2023-04-02T18:33:24;95735.19;;;7.12;77.93
38225;BME280;24025;48.138;11.428;2023-04-02T18:38:52;95742.03;;;7.00;76.29
38225;BME280;24025;48.138;11.428;2023-04-02T18:41:45;95744.13;;;6.95;76.50
38225;BME280;24025;48.138;11.428;2023-04-02T18:44:21;95751.34;;;6.82;75.73
38225;BME280;24025;48.138;11.428;2023-04-02T18:49:49;95764.25;;;6.84;77.50
38225;BME280;24025;48.138;11.428;2023-04-02T18:52:22;95762.91;;;6.77;77.71
38225;BME280;24025;48.138;11.428;2023-04-02T18:54:58;95768.56;;;6.76;79.33
38225;BME280;24025;48.138;11.428;2023-04-02T18:57:36;95779.50;;;6.74;78.45
38225;BME280;24025;48.138;11.428;2023-04-02T19:05:51;95786.78;;;6.77;78.54